La Motte, Iowa
Current Conditions -  °F | °C
As of 11:53 AM on Monday 22 Dec 2014 (Local Time) from KDBQ Reporting Station
Haze Haze  
Wind Chill: 26°   Ceiling: 3800
Heat Index: 36°   Visibility: 5mi
Dew Point: 31°   Wind: 17mph
Humidity: 82%   Direction: 120°ESE
Pressure: 29.68"   Gusts: NA
Location:  42.3°N, 90.62°W
Report Text: KDBQ 221753Z 12015KT 5SM HZ BKN038 BKN047 OVC060 02/M01 A2968 RMK AO2 SLP059 T00221006 10028 20006 58025
Loading
Personal Weather Stations






























Interactive Weather Map New forecast layout! Learn more

10-Day Weather Forecast

Advertisements
Track Severe Weather on mobile